Time;durP1;ratioP1;P1;durP2;ratioP2;P2;SDS_P1;SDS_P2;PMS_P1;PMS_P2;Temp;Humidity;BMP_temperature;BMP_pressure;BME280_temperature;BME280_humidity;BME280_pressure;Samples;Min_cycle;Max_cycle;Signal;HPM_P1;HPM_P2
2022/01/06 00:00:08;;;;;;;3.88;1.13;;;18.10;58.60;;;;;;4976739;28;20042;-53
2022/01/06 00:02:34;;;;;;;3.08;1.17;;;18.10;58.60;;;;;;4965046;28;20039;-55
2022/01/06 00:05:00;;;;;;;4.75;1.20;;;18.10;58.60;;;;;;4973621;28;20396;-55
2022/01/06 00:07:25;;;;;;;3.22;1.27;;;18.00;58.50;;;;;;4974048;28;20120;-55
2022/01/06 00:09:51;;;;;;;6.43;1.00;;;18.00;58.50;;;;;;4975326;28;20026;-56
2022/01/06 00:12:20;;;;;;;2.22;1.02;;;18.00;58.50;;;;;;4981056;28;20023;-54
2022/01/06 00:17:39;;;;;;;2.90;1.57;;;18.10;58.40;;;;;;4984052;28;20031;-53
2022/01/06 00:23:24;;;;;;;2.05;0.80;;;18.00;58.30;;;;;;4967517;28;20046;-55
2022/01/06 00:25:50;;;;;;;4.93;0.95;;;18.10;58.30;;;;;;4982403;28;20066;-55
2022/01/06 00:28:15;;;;;;;2.33;1.00;;;18.10;58.20;;;;;;4980124;28;20038;-56
2022/01/06 00:30:41;;;;;;;4.07;1.48;;;18.10;58.20;;;;;;4987273;28;20035;-56
2022/01/06 00:33:07;;;;;;;2.28;0.90;;;18.10;58.20;;;;;;4984135;28;20089;-55
2022/01/06 00:35:32;;;;;;;1.90;0.90;;;18.10;58.10;;;;;;4981289;28;20476;-56
2022/01/06 00:37:58;;;;;;;2.00;0.90;;;18.10;58.20;;;;;;4960267;28;20126;-55
2022/01/06 00:40:23;;;;;;;1.67;0.77;;;18.10;58.20;;;;;;4976759;28;20119;-52
2022/01/06 00:42:49;;;;;;;1.45;0.80;;;18.10;58.10;;;;;;4960008;28;20408;-55
2022/01/06 00:45:14;;;;;;;1.50;0.90;;;18.00;58.10;;;;;;4973322;28;20022;-54
2022/01/06 00:47:40;;;;;;;1.40;0.82;;;18.00;58.00;;;;;;4961863;28;20027;-55
2022/01/06 00:50:06;;;;;;;2.55;1.23;;;18.10;58.00;;;;;;4989076;28;20735;-52
2022/01/06 00:52:31;;;;;;;2.20;0.80;;;18.00;58.00;;;;;;4984340;28;20810;-52
2022/01/06 00:54:57;;;;;;;2.55;0.70;;;18.00;58.00;;;;;;4971190;28;20045;-51
2022/01/06 00:57:22;;;;;;;2.40;1.33;;;18.00;58.00;;;;;;4972402;28;20050;-53
2022/01/06 00:59:48;;;;;;;1.35;0.70;;;18.00;58.00;;;;;;4975583;28;20034;-52
2022/01/06 01:02:13;;;;;;;2.42;0.93;;;18.00;58.10;;;;;;4983718;28;20488;-54
2022/01/06 01:04:39;;;;;;;1.67;0.80;;;18.00;58.00;;;;;;4980784;28;20058;-52
2022/01/06 01:07:04;;;;;;;1.30;0.85;;;18.00;58.00;;;;;;4981554;28;20109;-56
2022/01/06 01:09:31;;;;;;;1.50;0.77;;;18.00;58.10;;;;;;4972455;28;20431;-52
2022/01/06 01:12:01;;;;;;;3.67;0.80;;;18.00;58.00;;;;;;4979118;28;20048;-53
2022/01/06 01:14:29;;;;;;;2.78;0.70;;;18.00;58.00;;;;;;4970546;28;20036;-52
2022/01/06 01:16:58;;;;;;;1.30;0.75;;;17.90;58.00;;;;;;4967574;28;20399;-54
2022/01/06 01:19:23;;;;;;;2.28;0.82;;;17.90;58.00;;;;;;4974626;28;20089;-51
2022/01/06 01:21:49;;;;;;;1.25;0.70;;;17.90;57.90;;;;;;4967816;28;20031;-52
2022/01/06 01:24:14;;;;;;;1.27;0.63;;;17.90;58.00;;;;;;4975875;28;20184;-54
2022/01/06 01:26:40;;;;;;;2.67;1.13;;;17.90;58.00;;;;;;4970648;28;20026;-55
2022/01/06 01:29:09;;;;;;;1.20;0.60;;;17.90;58.00;;;;;;4970730;28;20019;-56
2022/01/06 01:31:42;;;;;;;1.02;0.50;;;17.90;58.00;;;;;;4975503;28;20101;-55
2022/01/06 01:34:09;;;;;;;1.65;0.70;;;17.90;57.90;;;;;;4968585;28;20041;-54
2022/01/06 01:36:35;;;;;;;1.13;0.70;;;17.90;57.90;;;;;;4979732;28;20466;-56
2022/01/06 01:39:01;;;;;;;2.03;0.80;;;17.90;57.90;;;;;;4965327;28;20030;-56
2022/01/06 01:41:26;;;;;;;1.50;0.90;;;17.90;57.80;;;;;;4972169;28;20664;-55
2022/01/06 01:43:54;;;;;;;1.55;0.77;;;17.90;57.90;;;;;;4968150;28;20038;-54
2022/01/06 01:46:27;;;;;;;2.03;0.80;;;17.90;57.80;;;;;;4978408;28;20034;-54
2022/01/06 01:49:13;;;;;;;1.27;0.70;;;17.90;57.70;;;;;;4980763;28;20046;-55
2022/01/06 01:51:39;;;;;;;1.70;0.65;;;17.90;57.70;;;;;;4972673;28;20554;-59
2022/01/06 01:54:04;;;;;;;1.70;0.70;;;17.90;57.70;;;;;;4950731;28;20063;-52
2022/01/06 01:56:30;;;;;;;1.58;0.70;;;17.90;57.70;;;;;;4970716;28;20061;-54
2022/01/06 01:58:56;;;;;;;1.95;0.70;;;17.90;57.60;;;;;;4944360;28;20031;-53
2022/01/06 02:01:21;;;;;;;1.08;0.65;;;17.90;57.60;;;;;;4973749;28;20500;-52
2022/01/06 02:03:47;;;;;;;1.55;0.60;;;17.90;57.60;;;;;;4982583;28;20026;-52
2022/01/06 02:06:12;;;;;;;1.50;0.60;;;17.90;57.50;;;;;;4963317;28;20051;-55
2022/01/06 02:08:38;;;;;;;0.98;0.70;;;17.90;57.50;;;;;;4967606;28;20070;-58
2022/01/06 02:11:03;;;;;;;1.88;0.52;;;17.90;57.60;;;;;;4938727;28;20116;-55
2022/01/06 02:13:30;;;;;;;1.60;0.70;;;17.90;57.70;;;;;;4972835;28;20035;-56
2022/01/06 02:15:58;;;;;;;3.13;0.60;;;17.90;57.70;;;;;;4964166;28;20023;-55
2022/01/06 02:18:23;;;;;;;1.02;0.50;;;17.90;57.80;;;;;;4969204;28;20037;-56
2022/01/06 02:20:49;;;;;;;1.08;0.60;;;17.80;57.70;;;;;;4972307;28;20027;-56
2022/01/06 02:23:14;;;;;;;2.40;0.60;;;17.80;57.70;;;;;;4972873;28;20034;-52
2022/01/06 02:25:40;;;;;;;2.17;0.55;;;17.80;57.70;;;;;;4970193;28;20034;-53
2022/01/06 02:28:05;;;;;;;1.73;0.80;;;17.80;57.80;;;;;;4971918;28;20033;-55
2022/01/06 02:30:32;;;;;;;2.15;0.55;;;17.80;57.80;;;;;;4970996;28;20396;-55
2022/01/06 02:33:00;;;;;;;2.88;0.75;;;17.70;57.80;;;;;;4954550;28;20039;-53
2022/01/06 02:35:27;;;;;;;1.45;0.60;;;17.70;57.90;;;;;;4972069;28;20041;-54
2022/01/06 02:37:52;;;;;;;1.58;0.60;;;17.60;57.90;;;;;;4977442;28;20543;-53
2022/01/06 02:40:19;;;;;;;2.83;0.60;;;17.60;58.00;;;;;;4963898;28;20070;-54
2022/01/06 02:42:48;;;;;;;2.08;0.70;;;17.60;58.10;;;;;;4966677;28;20526;-53
2022/01/06 02:45:13;;;;;;;1.88;0.63;;;17.60;58.10;;;;;;4977755;28;20033;-54
2022/01/06 02:47:39;;;;;;;1.63;0.73;;;17.50;58.20;;;;;;4978613;28;20665;-56
2022/01/06 02:50:05;;;;;;;1.08;0.60;;;17.50;58.40;;;;;;4978879;28;20038;-55
2022/01/06 02:52:31;;;;;;;2.38;0.90;;;17.50;58.30;;;;;;4973065;28;20030;-55
2022/01/06 02:54:56;;;;;;;1.58;1.05;;;17.50;58.40;;;;;;4971717;28;20504;-55
2022/01/06 02:57:22;;;;;;;4.30;0.70;;;17.40;58.50;;;;;;4974809;28;20022;-55
2022/01/06 02:59:47;;;;;;;2.45;0.95;;;17.40;58.50;;;;;;4961561;28;20027;-53
2022/01/06 03:02:13;;;;;;;1.98;0.63;;;17.40;58.50;;;;;;4976171;28;20037;-52
2022/01/06 03:04:38;;;;;;;3.15;0.50;;;17.40;58.50;;;;;;4962941;28;20729;-54
2022/01/06 03:07:05;;;;;;;1.20;0.60;;;17.40;58.60;;;;;;4981930;28;20030;-53
2022/01/06 03:09:38;;;;;;;2.65;0.90;;;17.40;58.60;;;;;;4959452;28;20041;-55
2022/01/06 03:12:06;;;;;;;2.92;0.90;;;17.40;58.60;;;;;;4982261;28;20031;-55
2022/01/06 03:14:32;;;;;;;4.53;0.90;;;17.40;58.70;;;;;;4966954;28;20097;-54
2022/01/06 03:16:58;;;;;;;3.78;0.80;;;17.30;58.70;;;;;;4977064;28;20034;-55
2022/01/06 03:19:23;;;;;;;1.38;0.60;;;17.30;58.80;;;;;;4973093;28;20444;-57
2022/01/06 03:21:49;;;;;;;1.58;0.60;;;17.40;59.00;;;;;;4973492;28;20039;-55
2022/01/06 03:24:16;;;;;;;1.15;0.60;;;17.40;59.00;;;;;;4968651;28;20096;-55
2022/01/06 03:26:41;;;;;;;1.63;0.60;;;17.40;58.90;;;;;;4975673;28;20077;-52
2022/01/06 03:29:07;;;;;;;1.75;0.98;;;17.50;58.80;;;;;;4969478;28;20483;-55
2022/01/06 03:31:32;;;;;;;2.55;0.70;;;17.50;58.80;;;;;;4976000;28;20397;-54
2022/01/06 03:33:58;;;;;;;1.75;0.60;;;17.60;58.60;;;;;;4971883;28;20034;-55
2022/01/06 03:36:23;;;;;;;3.97;1.05;;;17.70;58.60;;;;;;4978571;28;20369;-53
2022/01/06 03:38:49;;;;;;;1.35;0.70;;;17.70;58.40;;;;;;4966397;28;20031;-55
2022/01/06 03:41:14;;;;;;;1.67;0.80;;;17.70;58.40;;;;;;4979373;28;20401;-54
2022/01/06 03:43:40;;;;;;;1.63;0.70;;;17.70;58.50;;;;;;4973336;28;20077;-52
2022/01/06 03:46:05;;;;;;;4.85;0.80;;;17.70;58.50;;;;;;4972832;28;20066;-55
2022/01/06 03:48:31;;;;;;;2.20;0.57;;;17.80;58.50;;;;;;4967417;28;20098;-55
2022/01/06 03:50:56;;;;;;;4.20;0.60;;;17.80;58.50;;;;;;4984029;28;20423;-53
2022/01/06 03:53:22;;;;;;;1.92;0.60;;;17.80;58.50;;;;;;4969992;28;20088;-54
2022/01/06 03:55:47;;;;;;;2.92;0.70;;;17.80;58.50;;;;;;4974698;28;20034;-56
2022/01/06 03:58:13;;;;;;;1.20;0.73;;;17.80;58.50;;;;;;4974452;28;20054;-56
2022/01/06 04:00:39;;;;;;;1.40;0.70;;;17.90;58.50;;;;;;4972285;28;20596;-52
2022/01/06 04:03:04;;;;;;;1.05;0.55;;;17.90;58.50;;;;;;4974203;28;20038;-56
2022/01/06 04:05:33;;;;;;;4.10;1.25;;;17.90;58.40;;;;;;4971473;28;20066;-56
2022/01/06 04:08:00;;;;;;;2.67;1.00;;;17.90;58.50;;;;;;4960872;28;20035;-56
2022/01/06 04:10:25;;;;;;;2.85;0.70;;;17.90;58.40;;;;;;4980034;28;20041;-57
2022/01/06 04:12:51;;;;;;;1.65;0.70;;;17.90;58.40;;;;;;4951973;28;20035;-54
2022/01/06 04:15:16;;;;;;;2.17;0.70;;;17.90;58.40;;;;;;4973297;28;20038;-54
2022/01/06 04:17:42;;;;;;;2.65;0.68;;;17.90;58.40;;;;;;4976230;28;20041;-57
2022/01/06 04:20:08;;;;;;;1.98;0.90;;;17.90;58.40;;;;;;4975830;28;20081;-58
2022/01/06 04:22:34;;;;;;;2.70;0.80;;;17.90;58.40;;;;;;4980542;28;20129;-56
2022/01/06 04:25:00;;;;;;;1.65;1.30;;;18.00;58.40;;;;;;4967993;28;20092;-55
2022/01/06 04:27:26;;;;;;;3.45;0.80;;;18.00;58.40;;;;;;4950823;28;20027;-52
2022/01/06 04:29:51;;;;;;;3.50;0.80;;;18.00;58.30;;;;;;4970975;28;20524;-56
2022/01/06 04:32:17;;;;;;;3.22;0.80;;;18.00;58.30;;;;;;4982713;28;20030;-57
2022/01/06 04:34:42;;;;;;;3.35;0.80;;;18.00;58.30;;;;;;4977391;28;20042;-57
2022/01/06 04:37:08;;;;;;;1.23;0.52;;;18.00;58.20;;;;;;4981895;28;20033;-54
2022/01/06 04:39:33;;;;;;;4.20;0.50;;;18.00;58.10;;;;;;4971036;28;20064;-57
2022/01/06 04:41:59;;;;;;;0.98;0.60;;;18.00;58.10;;;;;;4967929;28;20027;-57
2022/01/06 04:44:24;;;;;;;2.17;0.70;;;18.00;57.90;;;;;;4974976;28;20148;-54
2022/01/06 04:46:50;;;;;;;1.95;0.73;;;18.00;57.80;;;;;;4973413;28;20443;-52
2022/01/06 04:49:15;;;;;;;2.00;0.70;;;18.00;57.60;;;;;;4976011;28;20046;-56
2022/01/06 04:51:41;;;;;;;2.88;0.70;;;18.10;57.50;;;;;;4983719;28;20511;-62
2022/01/06 04:54:06;;;;;;;2.22;1.15;;;18.10;57.20;;;;;;4972499;28;20046;-52
2022/01/06 04:56:36;;;;;;;2.53;0.63;;;18.10;57.20;;;;;;4977801;28;20050;-53
2022/01/06 04:59:03;;;;;;;3.22;1.25;;;18.10;57.10;;;;;;4963744;28;20041;-56
2022/01/06 05:01:29;;;;;;;3.58;0.70;;;18.10;56.90;;;;;;4975368;28;20045;-55
2022/01/06 05:03:54;;;;;;;0.82;0.47;;;18.20;56.80;;;;;;4970310;28;20027;-54
2022/01/06 05:06:20;;;;;;;3.08;0.80;;;18.10;56.60;;;;;;4971175;28;20027;-56
2022/01/06 05:08:45;;;;;;;2.70;0.95;;;18.10;56.50;;;;;;4970921;28;20105;-53
2022/01/06 05:11:11;;;;;;;1.95;0.90;;;18.20;56.50;;;;;;4976295;28;20736;-60
2022/01/06 05:13:36;;;;;;;2.15;0.60;;;18.10;56.40;;;;;;4973939;28;20027;-56
2022/01/06 05:16:03;;;;;;;3.15;0.73;;;18.10;56.40;;;;;;4971541;28;20027;-56
2022/01/06 05:18:28;;;;;;;2.35;0.70;;;18.10;56.50;;;;;;4966429;28;20038;-53
2022/01/06 05:20:54;;;;;;;1.25;0.50;;;18.00;56.90;;;;;;4983057;28;20034;-56
2022/01/06 05:23:20;;;;;;;2.58;0.93;;;18.00;57.10;;;;;;4965642;28;20584;-56
2022/01/06 05:25:45;;;;;;;1.42;0.65;;;18.00;57.30;;;;;;4961890;28;20690;-54
2022/01/06 05:28:11;;;;;;;1.80;0.50;;;18.00;57.40;;;;;;4967001;28;20034;-60
2022/01/06 05:30:36;;;;;;;2.42;0.73;;;18.00;57.50;;;;;;4974659;28;20040;-54
2022/01/06 05:33:02;;;;;;;2.20;0.50;;;18.00;57.60;;;;;;4976513;28;20101;-55
2022/01/06 05:35:28;;;;;;;1.05;0.52;;;17.90;57.60;;;;;;4954614;28;20322;-56
2022/01/06 05:37:53;;;;;;;1.00;0.60;;;17.90;57.60;;;;;;4957047;28;20109;-52
2022/01/06 05:40:18;;;;;;;1.20;0.60;;;17.90;57.70;;;;;;4979907;28;20034;-59
2022/01/06 05:42:44;;;;;;;1.15;0.60;;;17.90;57.70;;;;;;4967146;28;20034;-55
2022/01/06 05:45:11;;;;;;;1.80;0.60;;;17.90;57.70;;;;;;4967268;28;20171;-55
2022/01/06 05:47:37;;;;;;;2.33;0.50;;;17.90;57.70;;;;;;4982083;28;20037;-54
2022/01/06 05:50:03;;;;;;;0.60;0.40;;;17.90;57.70;;;;;;4970063;28;20385;-55
2022/01/06 05:52:29;;;;;;;1.33;0.52;;;17.90;57.60;;;;;;4977443;28;20034;-57
2022/01/06 05:54:54;;;;;;;3.03;0.50;;;17.90;57.60;;;;;;4963178;28;20118;-57
2022/01/06 05:57:20;;;;;;;2.05;0.45;;;17.90;57.40;;;;;;4982414;28;20717;-56
2022/01/06 05:59:45;;;;;;;2.20;0.63;;;17.90;57.40;;;;;;4961293;28;20631;-53
2022/01/06 06:02:11;;;;;;;1.92;0.65;;;17.90;57.30;;;;;;4967596;28;20121;-55
2022/01/06 06:04:36;;;;;;;1.33;0.57;;;17.90;57.30;;;;;;4966449;28;20104;-54
2022/01/06 06:07:02;;;;;;;2.78;0.60;;;17.90;57.30;;;;;;4975259;28;20475;-57
2022/01/06 06:09:27;;;;;;;3.58;0.60;;;17.90;57.40;;;;;;4951636;28;20038;-55
2022/01/06 06:11:53;;;;;;;7.18;0.75;;;17.90;57.30;;;;;;4974284;28;20046;-56
2022/01/06 06:14:18;;;;;;;1.42;0.65;;;17.90;57.40;;;;;;4968646;28;20031;-56
2022/01/06 06:16:44;;;;;;;1.30;0.57;;;17.90;57.30;;;;;;4966088;28;20023;-52
2022/01/06 06:19:09;;;;;;;2.45;0.77;;;17.90;57.40;;;;;;4974845;28;20481;-57
2022/01/06 06:21:35;;;;;;;3.17;0.77;;;17.90;57.30;;;;;;4978028;28;20533;-52
2022/01/06 06:24:00;;;;;;;5.15;0.90;;;18.00;57.20;;;;;;4981298;28;20026;-54
2022/01/06 06:26:26;;;;;;;4.57;0.88;;;17.90;57.50;;;;;;4968604;28;20038;-54
2022/01/06 06:28:51;;;;;;;3.03;0.90;;;17.90;57.70;;;;;;4971490;28;20054;-55
2022/01/06 06:31:17;;;;;;;3.40;1.02;;;17.90;57.70;;;;;;4963392;28;20282;-52
2022/01/06 06:33:42;;;;;;;5.40;1.83;;;17.90;57.90;;;;;;4968949;28;20399;-60
2022/01/06 06:36:08;;;;;;;3.58;1.73;;;17.80;57.90;;;;;;4970227;28;20039;-55
2022/01/06 06:38:33;;;;;;;5.38;1.63;;;17.80;58.00;;;;;;4971310;28;20031;-56
2022/01/06 06:40:59;;;;;;;6.18;2.25;;;17.80;58.00;;;;;;4980111;28;20121;-55
2022/01/06 06:43:26;;;;;;;4.68;1.90;;;17.80;58.00;;;;;;4976296;28;20422;-55
2022/01/06 06:45:51;;;;;;;3.75;1.90;;;17.80;58.00;;;;;;4977090;28;20030;-53
2022/01/06 06:48:17;;;;;;;9.32;3.17;;;17.90;58.00;;;;;;4968487;28;20035;-55
2022/01/06 06:50:42;;;;;;;8.63;4.25;;;17.80;57.90;;;;;;4978534;28;20618;-51
2022/01/06 06:53:08;;;;;;;11.50;4.22;;;17.80;57.80;;;;;;4966468;28;20130;-55
2022/01/06 06:55:33;;;;;;;12.20;4.35;;;17.80;57.70;;;;;;4975326;28;20074;-54
2022/01/06 06:57:59;;;;;;;12.02;3.85;;;17.80;57.70;;;;;;4973088;28;20026;-55
2022/01/06 07:00:24;;;;;;;8.15;3.35;;;17.80;57.70;;;;;;4978094;28;20134;-55
2022/01/06 07:02:50;;;;;;;7.70;3.85;;;17.80;57.70;;;;;;4973138;28;20100;-55
2022/01/06 07:05:15;;;;;;;8.88;3.60;;;17.80;57.60;;;;;;4974219;28;20038;-53
2022/01/06 07:07:42;;;;;;;9.60;3.47;;;17.80;57.60;;;;;;4970643;28;20027;-55
2022/01/06 07:10:07;;;;;;;9.23;3.47;;;17.80;57.60;;;;;;4964326;28;20038;-54
2022/01/06 07:12:36;;;;;;;9.40;3.40;;;17.70;57.80;;;;;;4975148;28;20778;-55
2022/01/06 07:15:02;;;;;;;9.85;3.28;;;17.70;58.10;;;;;;4963311;28;20065;-55
2022/01/06 07:17:28;;;;;;;6.75;3.63;;;17.70;58.10;;;;;;4965929;28;20354;-55
2022/01/06 07:19:53;;;;;;;7.85;3.92;;;17.70;58.00;;;;;;4969348;28;20041;-54
2022/01/06 07:22:19;;;;;;;7.35;3.20;;;17.70;57.90;;;;;;4975982;28;20042;-54
2022/01/06 07:24:44;;;;;;;8.90;2.92;;;17.70;57.90;;;;;;4970127;28;20053;-56
2022/01/06 07:27:10;;;;;;;10.25;3.53;;;17.60;57.80;;;;;;4981156;28;20395;-56
2022/01/06 07:29:35;;;;;;;6.97;3.25;;;17.60;57.70;;;;;;4973135;28;20058;-55
2022/01/06 07:32:01;;;;;;;9.00;2.85;;;17.60;57.70;;;;;;4977536;28;20105;-53
2022/01/06 07:34:26;;;;;;;5.82;2.92;;;17.60;57.30;;;;;;4973262;28;20134;-51
2022/01/06 07:36:52;;;;;;;6.97;3.05;;;17.60;57.20;;;;;;4969433;28;20070;-56
2022/01/06 07:39:17;;;;;;;5.50;2.90;;;17.60;57.20;;;;;;4972660;28;20046;-55
2022/01/06 07:41:43;;;;;;;6.32;3.03;;;17.60;57.10;;;;;;4974136;28;20081;-54
2022/01/06 07:44:08;;;;;;;6.75;2.85;;;17.60;57.00;;;;;;4973083;28;20049;-55
2022/01/06 07:46:35;;;;;;;7.25;2.97;;;17.60;57.00;;;;;;4965803;28;20664;-55
2022/01/06 07:49:01;;;;;;;5.97;2.72;;;17.50;56.80;;;;;;4973628;28;20433;-53
2022/01/06 07:51:27;;;;;;;4.75;2.55;;;17.60;56.90;;;;;;4968882;28;20539;-54
2022/01/06 07:53:53;;;;;;;7.18;2.65;;;17.60;56.90;;;;;;4968251;28;20517;-54
2022/01/06 07:56:19;;;;;;;10.98;4.55;;;17.60;56.70;;;;;;4978361;28;20046;-55
2022/01/06 07:58:44;;;;;;;30.23;15.02;;;17.60;57.50;;;;;;4977006;28;20109;-51
2022/01/06 08:01:10;;;;;;;38.45;18.55;;;17.60;57.50;;;;;;4984043;28;20651;-54
2022/01/06 08:03:35;;;;;;;43.88;20.60;;;17.60;57.90;;;;;;4979705;28;20101;-55
2022/01/06 08:06:01;;;;;;;45.67;20.80;;;17.60;58.70;;;;;;4981627;28;20043;-53
2022/01/06 08:08:26;;;;;;;48.75;21.63;;;17.70;58.20;;;;;;4973914;28;20503;-52
2022/01/06 08:10:52;;;;;;;41.75;18.85;;;17.70;58.20;;;;;;4976671;28;20045;-55
2022/01/06 08:13:17;;;;;;;39.25;17.88;;;17.70;58.10;;;;;;4980308;28;20034;-54
2022/01/06 08:15:43;;;;;;;41.50;17.65;;;17.80;58.00;;;;;;4972359;28;20043;-54
2022/01/06 08:18:09;;;;;;;35.22;16.65;;;17.80;57.80;;;;;;4985039;28;20045;-52
2022/01/06 08:20:38;;;;;;;31.23;16.23;;;17.80;57.70;;;;;;4965886;28;20396;-55
2022/01/06 08:23:06;;;;;;;29.58;15.18;;;17.90;57.70;;;;;;4976850;28;20125;-52
2022/01/06 08:25:32;;;;;;;32.17;14.45;;;17.90;57.70;;;;;;4973484;28;20058;-51
2022/01/06 08:27:57;;;;;;;30.98;14.00;;;17.90;57.60;;;;;;4972254;28;20128;-54
2022/01/06 08:30:23;;;;;;;28.83;14.10;;;17.90;57.70;;;;;;4977099;28;20027;-55
2022/01/06 08:32:48;;;;;;;28.00;13.25;;;17.90;57.60;;;;;;4975206;28;20034;-51
2022/01/06 08:35:14;;;;;;;26.17;11.43;;;17.90;57.50;;;;;;4984759;28;20670;-61
2022/01/06 08:37:39;;;;;;;27.58;12.43;;;17.90;57.50;;;;;;4976774;28;20023;-55
2022/01/06 08:40:06;;;;;;;23.73;11.95;;;17.90;57.50;;;;;;4969702;28;20046;-54
2022/01/06 08:42:31;;;;;;;23.73;12.20;;;17.90;57.50;;;;;;4963589;28;20038;-55
2022/01/06 08:44:56;;;;;;;21.65;10.27;;;17.90;57.50;;;;;;4982422;28;20064;-51
2022/01/06 08:47:22;;;;;;;21.63;9.98;;;17.90;57.40;;;;;;4976200;28;20042;-53
2022/01/06 08:49:47;;;;;;;21.60;10.57;;;17.90;57.30;;;;;;4982573;28;20377;-54
2022/01/06 08:52:13;;;;;;;20.67;10.73;;;17.90;57.30;;;;;;4972378;28;20111;-57
2022/01/06 08:54:39;;;;;;;19.15;9.43;;;18.00;57.30;;;;;;4968846;28;20046;-50
2022/01/06 08:57:04;;;;;;;19.15;9.90;;;18.00;57.20;;;;;;4973468;28;20737;-56
2022/01/06 08:59:30;;;;;;;17.60;8.70;;;18.00;57.10;;;;;;4968972;28;20046;-55
2022/01/06 09:01:55;;;;;;;16.15;8.05;;;18.00;57.10;;;;;;4963922;28;20042;-51
2022/01/06 09:04:21;;;;;;;14.18;8.07;;;18.00;57.10;;;;;;4970562;28;20030;-53
2022/01/06 09:06:50;;;;;;;16.33;8.63;;;18.00;57.10;;;;;;4977592;28;20030;-55
2022/01/06 09:09:16;;;;;;;13.80;7.95;;;18.00;57.00;;;;;;4971977;28;20034;-53
2022/01/06 09:11:41;;;;;;;14.75;7.80;;;18.10;57.00;;;;;;4972948;28;20034;-54
2022/01/06 09:14:07;;;;;;;15.43;6.88;;;18.00;57.00;;;;;;4977704;28;20105;-53
2022/01/06 09:16:32;;;;;;;15.60;7.97;;;18.00;57.00;;;;;;4969987;28;20378;-54
2022/01/06 09:18:58;;;;;;;13.18;6.78;;;18.00;57.00;;;;;;4973775;28;20054;-55
2022/01/06 09:21:24;;;;;;;12.75;6.88;;;18.00;57.00;;;;;;4978492;28;20450;-54
2022/01/06 09:23:52;;;;;;;13.93;6.28;;;18.00;57.00;;;;;;4971937;28;20030;-54
2022/01/06 09:26:18;;;;;;;14.73;6.32;;;18.00;57.00;;;;;;4974144;28;20088;-55
2022/01/06 09:28:44;;;;;;;11.93;5.95;;;18.00;57.00;;;;;;4970824;28;20038;-52
2022/01/06 09:31:10;;;;;;;11.32;6.13;;;17.90;57.10;;;;;;4975404;28;20026;-55
2022/01/06 09:33:35;;;;;;;11.77;5.60;;;17.90;57.00;;;;;;4974633;28;20026;-54
2022/01/06 09:36:01;;;;;;;14.35;6.03;;;18.00;57.10;;;;;;4971681;28;20089;-51
2022/01/06 09:38:26;;;;;;;9.43;5.65;;;17.90;57.00;;;;;;4963851;28;20264;-55
2022/01/06 09:40:52;;;;;;;11.73;5.65;;;17.90;57.00;;;;;;4967632;28;20489;-54
2022/01/06 09:43:26;;;;;;;9.85;5.80;;;17.90;57.00;;;;;;4978651;28;20053;-55
2022/01/06 09:45:52;;;;;;;12.68;5.68;;;17.90;57.00;;;;;;4971449;28;20055;-54
2022/01/06 09:48:20;;;;;;;7.72;4.53;;;17.90;57.00;;;;;;4963965;28;20852;-54
2022/01/06 09:50:45;;;;;;;12.57;5.00;;;17.90;57.00;;;;;;4970438;28;20045;-55
2022/01/06 09:53:11;;;;;;;9.50;4.80;;;17.90;57.00;;;;;;4988786;23;20050;-50
2022/01/06 09:55:38;;;;;;;12.63;5.35;;;17.90;57.10;;;;;;4981506;28;20027;-54
2022/01/06 09:58:04;;;;;;;11.20;4.70;;;17.90;57.10;;;;;;4981471;28;20109;-52
2022/01/06 10:00:30;;;;;;;9.55;4.13;;;17.90;57.00;;;;;;4980438;28;20165;-52
2022/01/06 10:03:01;;;;;;;7.00;3.47;;;17.90;57.00;;;;;;4980927;28;20038;-56
2022/01/06 10:05:35;;;;;;;9.45;3.95;;;17.80;57.00;;;;;;4964574;28;20090;-58
2022/01/06 10:08:01;;;;;;;11.10;5.00;;;17.90;57.20;;;;;;4980842;28;20319;-55
2022/01/06 10:10:26;;;;;;;6.65;4.55;;;17.80;57.30;;;;;;4982312;28;20109;-53
2022/01/06 10:12:56;;;;;;;7.82;4.35;;;17.80;57.30;;;;;;4981613;28;20030;-51
2022/01/06 10:15:23;;;;;;;8.98;4.25;;;17.80;57.40;;;;;;4982978;28;20050;-53
2022/01/06 10:17:48;;;;;;;6.25;3.28;;;17.80;57.50;;;;;;4980916;28;20026;-55
2022/01/06 10:20:15;;;;;;;9.75;3.67;;;17.70;57.50;;;;;;4988566;28;20030;-53
2022/01/06 10:22:48;;;;;;;8.13;3.85;;;17.70;57.50;;;;;;4979258;28;20050;-57
2022/01/06 10:25:14;;;;;;;8.48;4.22;;;17.70;57.50;;;;;;4964499;28;20034;-53
2022/01/06 10:27:41;;;;;;;4.68;3.92;;;17.60;57.60;;;;;;4979375;28;20037;-53
2022/01/06 10:30:07;;;;;;;5.85;3.63;;;17.60;57.70;;;;;;4980710;28;20035;-53
2022/01/06 10:32:33;;;;;;;9.52;3.80;;;17.60;57.80;;;;;;4981489;28;20034;-56
2022/01/06 10:35:02;;;;;;;7.30;3.35;;;17.60;57.80;;;;;;4983473;28;20029;-51
2022/01/06 10:37:43;;;;;;;5.38;2.90;;;17.60;57.90;;;;;;4978723;28;20026;-60
2022/01/06 10:40:11;;;;;;;5.15;2.92;;;17.50;57.90;;;;;;4977307;28;20026;-51
2022/01/06 10:42:38;;;;;;;7.72;3.70;;;17.60;57.90;;;;;;4981198;28;20813;-58
2022/01/06 10:45:14;;;;;;;7.50;2.83;;;17.50;57.90;;;;;;4967155;28;20394;-56
2022/01/06 10:47:47;;;;;;;5.45;3.03;;;17.60;58.00;;;;;;4983389;28;20030;-57
2022/01/06 10:50:18;;;;;;;7.55;3.50;;;17.50;58.00;;;;;;4983302;28;20042;-54
2022/01/06 10:52:48;;;;;;;6.45;2.75;;;17.50;58.10;;;;;;4980343;28;20035;-54
2022/01/06 10:55:23;;;;;;;5.15;2.63;;;17.50;58.10;;;;;;4955531;28;20058;-53
2022/01/06 10:58:09;;;;;;;4.90;2.53;;;17.60;58.10;;;;;;4981719;28;20034;-50
2022/01/06 11:00:42;;;;;;;8.98;2.83;;;17.60;58.00;;;;;;4982265;28;20120;-58
2022/01/06 11:03:21;;;;;;;6.07;2.75;;;17.70;58.00;;;;;;4980656;28;20069;-55
2022/01/06 11:05:57;;;;;;;7.45;2.80;;;17.70;57.90;;;;;;4983419;28;20056;-52
2022/01/06 11:08:25;;;;;;;4.78;2.63;;;17.70;57.80;;;;;;4982081;28;20483;-56
2022/01/06 11:13:42;;;;;;;4.10;2.67;;;17.80;57.50;;;;;;4981165;28;20039;-50
2022/01/06 11:16:09;;;;;;;6.40;2.75;;;17.80;57.40;;;;;;4982178;28;20038;-59
2022/01/06 11:18:38;;;;;;;3.67;2.50;;;17.80;57.30;;;;;;4981467;28;20035;-58
2022/01/06 11:21:03;;;;;;;5.15;2.42;;;17.80;57.30;;;;;;4969259;28;20392;-51
2022/01/06 11:23:31;;;;;;;4.32;2.13;;;17.80;57.30;;;;;;4984882;28;20034;-52
2022/01/06 11:26:16;;;;;;;3.80;1.75;;;17.90;57.30;;;;;;4988627;28;20028;-58
2022/01/06 11:28:47;;;;;;;5.43;2.15;;;17.80;57.30;;;;;;4981706;28;20512;-55
2022/01/06 11:31:16;;;;;;;5.10;2.20;;;17.90;57.30;;;;;;4970639;28;20449;-57
2022/01/06 11:33:42;;;;;;;5.85;2.28;;;17.90;57.30;;;;;;4985003;28;20027;-60
2022/01/06 11:36:17;;;;;;;4.95;1.95;;;17.80;57.20;;;;;;4968773;28;20035;-57
2022/01/06 11:38:46;;;;;;;4.32;1.50;;;17.90;57.30;;;;;;4985209;28;20053;-57
2022/01/06 11:41:12;;;;;;;4.65;1.98;;;17.90;57.30;;;;;;4984554;28;20026;-50
2022/01/06 11:43:39;;;;;;;6.82;2.65;;;17.90;57.40;;;;;;4985237;28;20038;-55
2022/01/06 11:46:05;;;;;;;4.35;2.05;;;17.80;57.30;;;;;;4984557;28;20427;-57
2022/01/06 11:48:30;;;;;;;4.15;1.70;;;17.90;57.40;;;;;;4984119;28;20026;-58
2022/01/06 11:50:56;;;;;;;7.07;2.10;;;17.90;57.50;;;;;;4984732;28;20042;-56
2022/01/06 11:53:32;;;;;;;4.40;1.67;;;17.90;57.40;;;;;;4967460;28;20042;-57
2022/01/06 11:55:59;;;;;;;3.03;1.42;;;17.90;57.40;;;;;;4984474;28;20034;-56
2022/01/06 11:58:24;;;;;;;4.40;1.70;;;17.90;57.40;;;;;;4967821;28;20040;-56
2022/01/06 12:00:57;;;;;;;6.55;1.80;;;17.90;57.40;;;;;;4984423;28;20129;-56
2022/01/06 12:03:36;;;;;;;3.42;1.90;;;17.90;57.40;;;;;;4987068;28;20038;-53
2022/01/06 12:06:01;;;;;;;6.20;1.98;;;17.90;57.40;;;;;;4985277;28;20121;-53
2022/01/06 12:08:40;;;;;;;3.40;1.60;;;17.90;57.40;;;;;;4989515;28;20234;-53
2022/01/06 12:11:09;;;;;;;4.70;1.80;;;17.90;57.50;;;;;;4985544;28;20034;-57
2022/01/06 12:13:44;;;;;;;4.22;2.00;;;17.90;57.50;;;;;;4984157;28;20034;-51
2022/01/06 12:16:10;;;;;;;6.65;1.80;;;17.90;57.50;;;;;;4983819;28;20364;-58
2022/01/06 12:18:35;;;;;;;4.30;1.90;;;17.90;57.50;;;;;;4990866;28;20265;-50
2022/01/06 12:21:01;;;;;;;3.33;1.55;;;17.90;57.50;;;;;;4983809;28;20552;-54
2022/01/06 12:23:27;;;;;;;4.20;1.73;;;17.90;57.60;;;;;;4989344;28;20412;-61
2022/01/06 12:26:00;;;;;;;4.40;1.52;;;17.90;57.60;;;;;;4983639;28;20078;-55
2022/01/06 12:28:28;;;;;;;4.15;1.63;;;18.00;57.60;;;;;;4972151;28;20034;-56
2022/01/06 12:31:01;;;;;;;5.70;1.73;;;17.90;57.60;;;;;;4983759;28;20487;-52
2022/01/06 12:33:27;;;;;;;4.00;1.52;;;17.90;57.60;;;;;;4987550;28;20034;-61
2022/01/06 12:35:54;;;;;;;3.92;1.92;;;17.90;57.60;;;;;;4983558;28;20100;-56
2022/01/06 12:38:32;;;;;;;3.53;1.75;;;18.00;57.60;;;;;;4966900;28;20050;-58
2022/01/06 12:41:00;;;;;;;3.30;1.50;;;17.90;57.60;;;;;;4983288;28;20041;-52
2022/01/06 12:43:30;;;;;;;5.03;1.88;;;18.00;57.60;;;;;;4975713;28;20049;-53
2022/01/06 12:46:15;;;;;;;3.17;1.30;;;18.00;57.60;;;;;;4980612;28;20049;-53
2022/01/06 12:48:46;;;;;;;3.83;1.75;;;18.00;57.60;;;;;;4952540;28;20026;-57
2022/01/06 12:51:44;;;;;;;3.67;1.50;;;18.00;57.60;;;;;;4981261;28;20148;-60